createdAt,value
2018-04-26T00:00:11.439Z,4.50
2018-04-26T00:02:39.797Z,3.53
2018-04-26T00:05:15.075Z,4.60
2018-04-26T00:07:43.464Z,4.40
2018-04-26T00:10:13.397Z,4.70
2018-04-26T00:12:42.401Z,4.50
2018-04-26T00:15:10.781Z,4.50
2018-04-26T00:17:39.201Z,4.57
2018-04-26T00:20:10.020Z,4.70
2018-04-26T00:22:38.391Z,3.50
2018-04-26T00:25:12.314Z,3.63
2018-04-26T00:27:40.721Z,4.50
2018-04-26T00:32:53.178Z,3.40
2018-04-26T00:35:30.332Z,4.40
2018-04-26T00:37:58.506Z,3.60
2018-04-26T00:40:26.916Z,4.73
2018-04-26T00:42:55.900Z,3.50
2018-04-26T00:45:24.304Z,3.83
2018-04-26T00:47:52.677Z,3.73
2018-04-26T00:50:21.562Z,3.10
2018-04-26T00:52:49.934Z,2.73
2018-04-26T00:55:18.319Z,3.17
2018-04-26T00:57:46.704Z,3.57
2018-04-26T01:00:15.090Z,2.90
2018-04-26T01:02:43.460Z,3.90
2018-04-26T01:05:13.504Z,2.87
2018-04-26T01:07:41.883Z,3.20
2018-04-26T01:10:10.299Z,3.53
2018-04-26T01:12:38.916Z,3.20
2018-04-26T01:15:15.759Z,3.60
2018-04-26T01:17:44.142Z,4.00
2018-04-26T01:20:12.748Z,2.70
2018-04-26T01:22:41.125Z,2.80
2018-04-26T01:25:12.821Z,3.60
2018-04-26T01:27:41.603Z,2.30
2018-04-26T01:30:09.740Z,4.10
2018-04-26T01:32:37.879Z,2.80
2018-04-26T01:35:10.177Z,3.00
2018-04-26T01:37:49.005Z,2.40
2018-04-26T01:40:17.382Z,2.93
2018-04-26T01:42:45.755Z,2.40
2018-04-26T01:45:14.125Z,2.17
2018-04-26T01:47:42.498Z,2.50
2018-04-26T01:50:14.625Z,3.10
2018-04-26T01:52:43.010Z,2.17
2018-04-26T01:55:16.025Z,2.33
2018-04-26T01:57:44.398Z,3.60
2018-04-26T02:00:15.531Z,3.17
2018-04-26T02:02:43.907Z,2.60
2018-04-26T02:05:15.878Z,3.33
2018-04-26T02:07:44.257Z,3.40
2018-04-26T02:10:16.302Z,3.13
2018-04-26T02:12:44.669Z,2.97
2018-04-26T02:15:15.938Z,2.97
2018-04-26T02:17:44.084Z,3.20
2018-04-26T02:20:12.231Z,3.60
2018-04-26T02:22:40.606Z,3.90
2018-04-26T02:25:09.620Z,4.13
2018-04-26T02:27:38.139Z,3.93
2018-04-26T02:30:10.203Z,5.90
2018-04-26T02:32:38.607Z,5.10
2018-04-26T02:35:11.342Z,5.37
2018-04-26T02:37:39.746Z,5.30
2018-04-26T02:40:12.404Z,5.90
2018-04-26T02:42:40.768Z,5.40
2018-04-26T02:45:12.657Z,5.27
2018-04-26T02:47:41.058Z,5.70
2018-04-26T02:50:15.053Z,5.50
2018-04-26T02:52:43.465Z,6.50
2018-04-26T02:55:16.232Z,5.43
2018-04-26T02:57:44.629Z,5.37
2018-04-26T03:02:50.887Z,5.47
2018-04-26T03:05:19.265Z,6.00
2018-04-26T03:07:47.645Z,6.40
2018-04-26T03:10:16.681Z,5.67
2018-04-26T03:12:45.057Z,6.70
2018-04-26T03:15:14.034Z,6.00
2018-04-26T03:17:43.146Z,7.00
2018-04-26T03:20:17.525Z,6.70
2018-04-26T03:22:45.897Z,6.30
2018-04-26T03:25:17.168Z,6.50
2018-04-26T03:27:45.551Z,5.97
2018-04-26T03:30:14.061Z,7.77
2018-04-26T03:32:42.433Z,7.33
2018-04-26T03:35:16.169Z,7.00
2018-04-26T03:37:45.387Z,7.67
2018-04-26T03:40:17.055Z,8.07
2018-04-26T03:42:45.434Z,7.10
2018-04-26T03:45:16.253Z,8.17
2018-04-26T03:47:44.668Z,8.27
2018-04-26T03:50:16.708Z,8.63
2018-04-26T03:52:45.084Z,7.73
2018-04-26T03:55:16.676Z,7.57
2018-04-26T03:57:45.690Z,7.80
2018-04-26T04:00:25.236Z,8.50
2018-04-26T04:03:04.604Z,7.70
2018-04-26T04:05:44.167Z,7.27
2018-04-26T04:08:12.553Z,7.13
2018-04-26T04:10:40.632Z,8.20
2018-04-26T04:13:09.001Z,7.43
2018-04-26T04:15:37.433Z,7.37
2018-04-26T04:18:05.837Z,7.17
2018-04-26T04:20:34.225Z,8.53
2018-04-26T04:23:02.613Z,8.53
2018-04-26T04:25:30.992Z,7.60
2018-04-26T04:27:59.442Z,7.97
2018-04-26T04:30:28.039Z,7.77
2018-04-26T04:32:56.410Z,7.90
2018-04-26T04:35:24.876Z,7.50
2018-04-26T04:37:53.175Z,7.57
2018-04-26T04:40:21.569Z,7.30
2018-04-26T04:42:50.003Z,5.70
2018-04-26T04:45:18.554Z,7.40
2018-04-26T04:47:46.918Z,8.40
2018-04-26T04:50:16.224Z,7.93
2018-04-26T04:52:44.602Z,8.00
2018-04-26T04:55:19.325Z,9.40
2018-04-26T04:57:47.706Z,6.63
2018-04-26T05:00:16.096Z,7.47
2018-04-26T05:02:44.468Z,7.60
2018-04-26T05:05:16.325Z,8.20
2018-04-26T05:07:44.738Z,7.00
2018-04-26T05:10:16.908Z,5.30
2018-04-26T05:12:45.315Z,6.30
2018-04-26T05:15:15.876Z,6.00
2018-04-26T05:17:44.360Z,5.60
2018-04-26T05:20:16.108Z,6.40
2018-04-26T05:22:44.499Z,5.50
2018-04-26T05:25:17.929Z,6.07
2018-04-26T05:27:46.298Z,6.20
2018-04-26T05:30:14.685Z,5.20
2018-04-26T05:32:43.066Z,5.17
2018-04-26T05:35:16.653Z,5.47
2018-04-26T05:37:45.074Z,4.63
2018-04-26T05:40:17.572Z,4.50
2018-04-26T05:42:45.942Z,4.40
2018-04-26T05:45:17.451Z,4.93
2018-04-26T05:47:45.622Z,3.47
2018-04-26T05:50:14.640Z,3.50
2018-04-26T05:52:43.472Z,4.40
2018-04-26T05:55:17.016Z,4.27
2018-04-26T05:57:45.391Z,4.70
2018-04-26T06:00:13.758Z,4.07
2018-04-26T06:02:42.137Z,4.67
2018-04-26T06:05:12.152Z,3.70
2018-04-26T06:07:40.534Z,4.53
2018-04-26T06:10:13.249Z,3.90
2018-04-26T06:12:41.636Z,3.40
2018-04-26T06:15:10.010Z,3.20
2018-04-26T06:17:38.381Z,2.50
2018-04-26T06:20:12.869Z,3.43
2018-04-26T06:22:41.232Z,3.10
2018-04-26T06:25:15.129Z,3.53
2018-04-26T06:27:43.504Z,2.90
2018-04-26T06:30:15.598Z,3.20
2018-04-26T06:32:43.974Z,3.13
2018-04-26T06:35:15.726Z,3.40
2018-04-26T06:37:44.111Z,3.30
2018-04-26T06:40:13.831Z,3.40
2018-04-26T06:42:43.819Z,2.70
2018-04-26T06:45:12.648Z,3.43
2018-04-26T06:47:41.025Z,3.33
2018-04-26T06:50:13.827Z,3.30
2018-04-26T06:52:42.200Z,2.80
2018-04-26T06:55:15.068Z,4.13
2018-04-26T06:57:43.428Z,3.20
2018-04-26T07:00:16.468Z,4.10
2018-04-26T07:02:44.868Z,5.70
2018-04-26T07:05:13.236Z,9.50
2018-04-26T07:07:41.614Z,17.00
2018-04-26T07:10:17.856Z,5.10
2018-04-26T07:12:46.237Z,6.40
2018-04-26T07:15:15.681Z,3.90
2018-04-26T07:17:44.057Z,4.13
2018-04-26T07:20:16.175Z,3.23
2018-04-26T07:22:44.542Z,4.70
2018-04-26T07:25:15.569Z,3.70
2018-04-26T07:27:43.933Z,4.37
2018-04-26T07:30:13.888Z,3.23
2018-04-26T07:32:42.258Z,3.10
2018-04-26T07:35:16.478Z,3.50
2018-04-26T07:37:44.845Z,3.90
2018-04-26T07:40:13.212Z,3.97
2018-04-26T07:42:41.579Z,3.80
2018-04-26T07:45:16.380Z,4.57
2018-04-26T07:47:44.761Z,4.33
2018-04-26T07:50:16.273Z,3.53
2018-04-26T07:52:44.645Z,3.70
2018-04-26T07:55:13.096Z,4.07
2018-04-26T07:57:41.480Z,3.30
2018-04-26T08:00:15.799Z,3.80
2018-04-26T08:02:44.336Z,3.00
2018-04-26T08:05:13.101Z,3.33
2018-04-26T08:07:41.490Z,4.60
2018-04-26T08:10:15.492Z,3.70
2018-04-26T08:12:43.875Z,3.40
2018-04-26T08:15:13.585Z,2.97
2018-04-26T08:17:41.966Z,4.27
2018-04-26T08:20:10.341Z,3.40
2018-04-26T08:22:39.933Z,3.60
2018-04-26T08:25:09.465Z,3.63
2018-04-26T08:27:37.852Z,4.10
2018-04-26T08:30:10.631Z,4.50
2018-04-26T08:32:39.010Z,4.10
2018-04-26T08:35:08.695Z,4.43
2018-04-26T08:37:36.827Z,4.40
2018-04-26T08:42:39.484Z,4.77
2018-04-26T08:45:14.407Z,5.33
2018-04-26T08:47:42.804Z,5.33
2018-04-26T08:50:15.965Z,4.70
2018-04-26T08:52:44.342Z,5.40
2018-04-26T08:55:17.659Z,4.43
2018-04-26T08:57:46.032Z,5.40
2018-04-26T09:00:14.394Z,5.30
2018-04-26T09:02:43.181Z,5.93
2018-04-26T09:05:15.952Z,4.50
2018-04-26T09:07:44.328Z,5.50
2018-04-26T09:10:14.786Z,5.00
2018-04-26T09:12:43.189Z,5.13
2018-04-26T09:15:16.474Z,4.50
2018-04-26T09:17:44.618Z,5.90
2018-04-26T09:20:12.778Z,5.30
2018-04-26T09:22:41.143Z,5.90
2018-04-26T09:25:15.461Z,5.63
2018-04-26T09:27:43.835Z,6.90
2018-04-26T09:30:12.328Z,6.57
2018-04-26T09:32:40.806Z,7.00
2018-04-26T09:35:12.259Z,7.33
2018-04-26T09:37:40.656Z,7.67
2018-04-26T09:40:16.184Z,7.50
2018-04-26T09:42:44.554Z,7.70
2018-04-26T09:45:12.929Z,8.57
2018-04-26T09:47:41.293Z,7.53
2018-04-26T09:50:13.148Z,8.40
2018-04-26T09:52:41.525Z,7.53
2018-04-26T09:55:16.589Z,8.47
2018-04-26T09:57:45.781Z,8.03
2018-04-26T10:00:14.872Z,8.00
2018-04-26T10:02:47.473Z,7.60
2018-04-26T10:05:16.425Z,7.00
2018-04-26T10:07:44.802Z,6.80
2018-04-26T10:10:13.185Z,7.17
2018-04-26T10:12:41.560Z,7.70
2018-04-26T10:15:16.732Z,6.97
2018-04-26T10:17:45.105Z,5.43
2018-04-26T10:20:14.895Z,5.93
2018-04-26T10:22:43.321Z,5.77
2018-04-26T10:25:15.023Z,6.10
2018-04-26T10:27:43.394Z,5.73
2018-04-26T10:30:15.193Z,5.70
2018-04-26T10:32:43.577Z,5.10
2018-04-26T10:35:12.695Z,6.30
2018-04-26T10:37:41.085Z,6.00
2018-04-26T10:40:15.431Z,5.17
2018-04-26T10:42:43.830Z,5.00
2018-04-26T10:45:12.205Z,5.13
2018-04-26T10:47:40.608Z,4.93
2018-04-26T10:50:12.482Z,4.70
2018-04-26T10:52:40.880Z,4.50
2018-04-26T10:55:13.225Z,3.80
2018-04-26T10:57:41.572Z,4.53
2018-04-26T11:00:15.806Z,4.37
2018-04-26T11:02:44.270Z,4.07
2018-04-26T11:05:16.443Z,4.07
2018-04-26T11:07:44.818Z,3.93
2018-04-26T11:10:14.124Z,5.00
2018-04-26T11:12:42.486Z,4.67
2018-04-26T11:15:14.776Z,5.60
2018-04-26T11:17:44.700Z,4.80
2018-04-26T11:20:13.094Z,5.20
2018-04-26T11:22:41.489Z,5.80
2018-04-26T11:25:10.112Z,3.50
2018-04-26T11:27:39.426Z,4.30
2018-04-26T11:30:07.804Z,3.80
2018-04-26T11:32:36.597Z,5.77
2018-04-26T11:35:05.038Z,5.87
2018-04-26T11:37:33.412Z,4.40
2018-04-26T11:40:01.784Z,5.70
2018-04-26T11:42:30.174Z,5.33
2018-04-26T11:44:59.389Z,4.97
2018-04-26T11:47:27.754Z,4.17
2018-04-26T11:49:56.115Z,3.53
2018-04-26T11:52:24.514Z,4.10
2018-04-26T11:54:53.109Z,3.33
2018-04-26T11:57:21.495Z,3.90
2018-04-26T11:59:49.880Z,3.50
2018-04-26T12:02:18.269Z,3.60
2018-04-26T12:04:46.830Z,3.13
2018-04-26T12:07:15.204Z,3.80
2018-04-26T12:09:43.584Z,2.80
2018-04-26T12:12:11.952Z,3.43
2018-04-26T12:14:40.338Z,3.33
2018-04-26T12:17:08.709Z,3.30
2018-04-26T12:19:37.077Z,3.10
2018-04-26T12:22:05.455Z,3.63
2018-04-26T12:24:33.833Z,3.23
2018-04-26T12:27:02.848Z,3.60
2018-04-26T12:29:31.211Z,3.67
2018-04-26T12:31:59.600Z,3.63
2018-04-26T12:34:27.968Z,3.57
2018-04-26T12:36:56.345Z,3.33
2018-04-26T12:39:25.185Z,3.63
2018-04-26T12:41:53.580Z,3.40
2018-04-26T12:44:21.990Z,2.90
2018-04-26T12:46:50.422Z,3.83
2018-04-26T12:49:18.807Z,3.43
2018-04-26T12:51:47.176Z,4.03
2018-04-26T12:54:15.573Z,3.90
2018-04-26T12:59:42.559Z,3.57
2018-04-26T13:02:10.719Z,4.00
2018-04-26T13:04:39.309Z,4.27
2018-04-26T13:07:07.687Z,4.50
2018-04-26T13:09:36.074Z,4.03
2018-04-26T13:12:04.200Z,4.23
2018-04-26T13:14:32.557Z,4.07
2018-04-26T13:17:00.937Z,4.90
2018-04-26T13:19:29.301Z,3.97
2018-04-26T13:21:57.456Z,3.80
2018-04-26T13:24:25.815Z,4.07
2018-04-26T13:26:54.589Z,3.90
2018-04-26T13:29:22.968Z,4.03
2018-04-26T13:31:51.343Z,4.33
2018-04-26T13:34:19.765Z,4.10
2018-04-26T13:36:48.136Z,4.07
2018-04-26T13:39:16.516Z,3.97
2018-04-26T13:41:44.912Z,3.70
2018-04-26T13:44:13.288Z,4.00
2018-04-26T13:46:41.707Z,3.87
2018-04-26T13:49:10.081Z,3.80
2018-04-26T13:51:38.441Z,3.53
2018-04-26T13:54:07.322Z,3.50
2018-04-26T13:56:36.337Z,4.10
2018-04-26T13:59:04.749Z,3.90
2018-04-26T14:01:33.122Z,3.40
2018-04-26T14:04:01.499Z,3.63
2018-04-26T14:06:29.884Z,3.30
2018-04-26T14:08:58.256Z,3.17
2018-04-26T14:11:26.757Z,3.27
2018-04-26T14:13:55.125Z,4.17
2018-04-26T14:16:23.852Z,4.27
2018-04-26T14:18:52.216Z,3.10
2018-04-26T14:21:20.597Z,3.57
2018-04-26T14:23:48.964Z,2.90
2018-04-26T14:26:17.685Z,3.97
2018-04-26T14:28:46.952Z,4.27
2018-04-26T14:31:15.314Z,2.73
2018-04-26T14:33:43.698Z,3.40
2018-04-26T14:36:12.222Z,3.20
2018-04-26T14:38:40.581Z,3.23
2018-04-26T14:41:08.965Z,3.00
2018-04-26T14:43:37.346Z,2.93
2018-04-26T14:46:05.709Z,2.67
2018-04-26T14:48:34.076Z,3.00
2018-04-26T14:51:02.442Z,2.90
2018-04-26T14:53:30.833Z,2.80
2018-04-26T14:55:59.208Z,2.23
2018-04-26T14:58:27.584Z,2.57
2018-04-26T15:00:57.034Z,2.43
2018-04-26T15:03:25.414Z,2.97
2018-04-26T15:05:53.876Z,2.07
2018-04-26T15:08:22.257Z,2.80
2018-04-26T15:10:50.646Z,2.87
2018-04-26T15:13:19.051Z,2.30
2018-04-26T15:15:47.465Z,2.90
2018-04-26T15:18:15.854Z,2.70
2018-04-26T15:20:44.569Z,2.60
2018-04-26T15:23:13.651Z,3.33
2018-04-26T15:25:42.055Z,2.93
2018-04-26T15:28:10.444Z,3.07
2018-04-26T15:30:38.906Z,3.37
2018-04-26T15:33:07.469Z,2.50
2018-04-26T15:35:35.899Z,2.93
2018-04-26T15:38:04.293Z,2.70
2018-04-26T15:40:32.659Z,3.10
2018-04-26T15:43:01.292Z,2.90
2018-04-26T15:45:29.670Z,3.80
2018-04-26T15:47:58.048Z,2.73
2018-04-26T15:53:34.803Z,3.50
2018-04-26T15:59:25.517Z,3.37
2018-04-26T16:02:31.209Z,3.60
2018-04-26T16:05:16.303Z,2.90
2018-04-26T16:08:01.129Z,3.00
2018-04-26T16:10:45.920Z,3.50
2018-04-26T16:16:47.578Z,3.00
2018-04-26T16:19:34.875Z,3.30
2018-04-26T16:22:20.711Z,4.20
2018-04-26T16:25:00.068Z,3.20
2018-04-26T16:27:44.789Z,3.47
2018-04-26T16:30:24.209Z,3.70
2018-04-26T16:33:05.598Z,2.80
2018-04-26T16:35:45.173Z,3.97
2018-04-26T16:38:24.576Z,4.00
2018-04-26T16:40:52.966Z,3.40
2018-04-26T16:43:21.556Z,3.03
2018-04-26T16:45:49.964Z,3.50
2018-04-26T16:48:18.362Z,3.37
2018-04-26T16:50:47.275Z,3.40
2018-04-26T16:53:16.085Z,3.27
2018-04-26T16:55:44.717Z,3.13
2018-04-26T16:58:13.127Z,2.57
2018-04-26T17:00:41.512Z,4.00
2018-04-26T17:03:09.901Z,3.20
2018-04-26T17:05:38.439Z,3.33
2018-04-26T17:08:06.801Z,3.00
2018-04-26T17:10:35.171Z,3.13
2018-04-26T17:13:03.562Z,2.80
2018-04-26T17:15:31.957Z,2.90
2018-04-26T17:18:00.321Z,3.83
2018-04-26T17:20:28.708Z,3.13
2018-04-26T17:22:57.082Z,3.00
2018-04-26T17:25:25.477Z,2.67
2018-04-26T17:27:53.873Z,2.97
2018-04-26T17:30:22.442Z,3.23
2018-04-26T17:32:50.828Z,3.00
2018-04-26T17:35:19.808Z,2.67
2018-04-26T17:37:48.195Z,2.73
2018-04-26T17:40:16.659Z,2.07
2018-04-26T17:42:45.165Z,2.50
2018-04-26T17:45:13.524Z,3.20
2018-04-26T17:47:41.900Z,3.27
2018-04-26T17:50:10.488Z,3.73
2018-04-26T17:52:39.192Z,3.40
2018-04-26T17:55:07.607Z,3.17
2018-04-26T17:57:35.981Z,3.20
2018-04-26T18:00:04.237Z,3.03
2018-04-26T18:02:32.830Z,2.17
2018-04-26T18:05:01.235Z,3.00
2018-04-26T18:07:29.656Z,3.30
2018-04-26T18:09:58.092Z,2.83
2018-04-26T18:12:26.477Z,2.47
2018-04-26T18:14:55.678Z,3.27
2018-04-26T18:17:24.059Z,3.33
2018-04-26T18:20:01.038Z,2.80
2018-04-26T18:22:21.032Z,2.63
2018-04-26T18:24:50.181Z,2.30
2018-04-26T18:27:18.564Z,2.43
2018-04-26T18:29:46.936Z,2.57
2018-04-26T18:32:16.192Z,2.90
2018-04-26T18:34:45.222Z,2.73
2018-04-26T18:37:13.603Z,2.70
2018-04-26T18:39:41.983Z,2.60
2018-04-26T18:42:10.362Z,2.73
2018-04-26T18:44:38.781Z,2.33
2018-04-26T18:47:07.175Z,3.20
2018-04-26T18:49:35.584Z,3.30
2018-04-26T18:52:04.105Z,3.93
2018-04-26T18:54:32.610Z,2.73
2018-04-26T18:57:01.204Z,2.87
2018-04-26T18:59:30.023Z,3.27
2018-04-26T19:01:58.765Z,2.43
2018-04-26T19:04:27.145Z,3.13
2018-04-26T19:06:56.114Z,2.77
2018-04-26T19:09:24.486Z,2.53
2018-04-26T19:11:53.317Z,2.80
2018-04-26T19:14:21.693Z,2.10
2018-04-26T19:16:50.076Z,2.63
2018-04-26T19:19:18.442Z,2.70
2018-04-26T19:21:46.965Z,2.40
2018-04-26T19:24:15.545Z,3.63
2018-04-26T19:26:43.954Z,2.87
2018-04-26T19:29:13.340Z,3.03
2018-04-26T19:31:41.713Z,3.63
2018-04-26T19:34:10.085Z,2.93
2018-04-26T19:36:39.102Z,2.60
2018-04-26T19:39:08.197Z,2.83
2018-04-26T19:41:36.611Z,2.97
2018-04-26T19:44:04.977Z,2.20
2018-04-26T19:46:33.350Z,2.77
2018-04-26T19:49:01.718Z,2.57
2018-04-26T19:51:30.097Z,3.77
2018-04-26T19:53:58.506Z,2.80
2018-04-26T19:56:26.895Z,2.23
2018-04-26T19:58:55.259Z,2.67
2018-04-26T20:01:23.913Z,2.90
2018-04-26T20:03:53.705Z,2.90
2018-04-26T20:06:22.095Z,2.60
2018-04-26T20:08:50.483Z,3.20
2018-04-26T20:11:19.042Z,2.73
2018-04-26T20:13:47.412Z,2.83
2018-04-26T20:16:15.804Z,3.00
2018-04-26T20:18:44.169Z,1.97
2018-04-26T20:21:12.631Z,3.40
2018-04-26T20:23:41.130Z,2.53
2018-04-26T20:26:09.506Z,3.13
2018-04-26T20:28:37.869Z,2.83
2018-04-26T20:31:06.726Z,3.13
2018-04-26T20:33:35.101Z,2.80
2018-04-26T20:36:03.517Z,2.57
2018-04-26T20:38:32.081Z,3.80
2018-04-26T20:41:00.466Z,2.47
2018-04-26T20:43:28.840Z,3.07
2018-04-26T20:45:57.497Z,2.80
2018-04-26T20:48:36.975Z,2.90
2018-04-26T20:51:05.353Z,2.23
2018-04-26T20:53:33.994Z,2.80
2018-04-26T20:56:02.377Z,2.70
2018-04-26T20:58:30.960Z,2.80
2018-04-26T21:00:59.343Z,2.40
2018-04-26T21:03:27.717Z,3.00
2018-04-26T21:05:56.099Z,2.87
2018-04-26T21:08:24.511Z,2.20
2018-04-26T21:10:53.070Z,2.63
2018-04-26T21:13:21.439Z,3.03
2018-04-26T21:15:49.812Z,2.47
2018-04-26T21:18:18.217Z,3.33
2018-04-26T21:20:46.586Z,2.60
2018-04-26T21:23:15.189Z,2.93
2018-04-26T21:25:43.556Z,2.93
2018-04-26T21:28:11.924Z,2.80
2018-04-26T21:30:40.309Z,3.03
2018-04-26T21:33:08.677Z,3.00
2018-04-26T21:35:37.141Z,2.40
2018-04-26T21:38:05.614Z,1.97
2018-04-26T21:40:34.009Z,3.33
2018-04-26T21:43:02.386Z,3.70
2018-04-26T21:45:30.792Z,3.00
2018-04-26T21:47:59.162Z,2.47
2018-04-26T21:50:32.863Z,3.07
2018-04-26T21:53:06.477Z,2.63
2018-04-26T21:55:40.228Z,2.47
2018-04-26T21:58:13.865Z,2.70
2018-04-26T22:00:47.538Z,2.90
2018-04-26T22:03:18.093Z,3.20
2018-04-26T22:05:46.474Z,3.07
2018-04-26T22:08:14.863Z,1.87
2018-04-26T22:10:43.258Z,2.30
2018-04-26T22:13:12.385Z,2.63
2018-04-26T22:15:40.801Z,2.97
2018-04-26T22:18:09.197Z,2.90
2018-04-26T22:20:37.561Z,2.50
2018-04-26T22:23:05.933Z,2.70
2018-04-26T22:25:34.293Z,2.40
2018-04-26T22:28:03.229Z,2.53
2018-04-26T22:30:31.632Z,2.70
2018-04-26T22:33:00.018Z,2.63
2018-04-26T22:35:28.387Z,2.60
2018-04-26T22:37:56.870Z,3.03
2018-04-26T22:40:25.228Z,2.80
2018-04-26T22:42:53.611Z,2.90
2018-04-26T22:45:22.616Z,3.40
2018-04-26T22:47:50.999Z,3.07
2018-04-26T22:50:19.371Z,2.83
2018-04-26T22:52:47.751Z,3.00
2018-04-26T22:55:16.158Z,2.53
2018-04-26T22:57:44.763Z,2.77
2018-04-26T23:00:12.965Z,2.40
2018-04-26T23:02:41.342Z,2.83
2018-04-26T23:05:09.741Z,3.20
2018-04-26T23:07:38.225Z,2.60
2018-04-26T23:10:07.555Z,2.20
2018-04-26T23:12:36.556Z,2.00
2018-04-26T23:15:05.008Z,2.90
2018-04-26T23:17:33.409Z,2.47
2018-04-26T23:20:01.872Z,2.63
2018-04-26T23:22:30.302Z,2.80
2018-04-26T23:24:59.034Z,3.10
2018-04-26T23:27:27.483Z,2.60
2018-04-26T23:29:56.005Z,2.50
2018-04-26T23:32:25.015Z,2.40
2018-04-26T23:34:53.424Z,2.50
2018-04-26T23:37:21.788Z,2.50
2018-04-26T23:39:50.426Z,2.67
2018-04-26T23:42:18.803Z,2.33
2018-04-26T23:44:47.184Z,2.50
2018-04-26T23:47:15.553Z,2.60
2018-04-26T23:49:43.925Z,3.10
2018-04-26T23:52:12.289Z,3.00
2018-04-26T23:54:40.800Z,2.60
2018-04-26T23:57:09.207Z,2.67
2018-04-26T23:59:37.762Z,2.60
